sensor_id;sensor_type;location;lat;lon;timestamp;pressure;altitude;pressure_sealevel;temperature;humidity
51053;BME280;37093;37.716;-122.060;2023-04-07T00:00:48;100094.64;;;17.63;27.41
51053;BME280;37093;37.716;-122.060;2023-04-07T00:03:16;100095.03;;;16.69;28.06
51053;BME280;37093;37.716;-122.060;2023-04-07T00:05:45;100096.20;;;17.39;27.54
51053;BME280;37093;37.716;-122.060;2023-04-07T00:08:13;100096.74;;;16.99;27.96
51053;BME280;37093;37.716;-122.060;2023-04-07T00:10:42;100094.59;;;16.79;28.18
51053;BME280;37093;37.716;-122.060;2023-04-07T00:13:11;100094.38;;;17.19;28.42
51053;BME280;37093;37.716;-122.060;2023-04-07T00:15:39;100093.93;;;17.27;29.51
51053;BME280;37093;37.716;-122.060;2023-04-07T00:18:08;100094.36;;;16.76;30.83
51053;BME280;37093;37.716;-122.060;2023-04-07T00:20:36;100088.65;;;17.20;29.78
51053;BME280;37093;37.716;-122.060;2023-04-07T00:23:05;100091.06;;;17.60;30.82
51053;BME280;37093;37.716;-122.060;2023-04-07T00:25:33;100090.90;;;16.89;31.05
51053;BME280;37093;37.716;-122.060;2023-04-07T00:28:02;100081.03;;;18.05;31.72
51053;BME280;37093;37.716;-122.060;2023-04-07T00:30:30;100082.36;;;17.42;32.36
51053;BME280;37093;37.716;-122.060;2023-04-07T00:32:59;100075.16;;;16.93;34.10
51053;BME280;37093;37.716;-122.060;2023-04-07T00:35:27;100071.02;;;17.54;33.46
51053;BME280;37093;37.716;-122.060;2023-04-07T00:37:56;100074.45;;;17.02;34.12
51053;BME280;37093;37.716;-122.060;2023-04-07T00:40:25;100067.93;;;17.58;32.31
51053;BME280;37093;37.716;-122.060;2023-04-07T00:42:53;100070.02;;;17.89;32.78
51053;BME280;37093;37.716;-122.060;2023-04-07T00:45:21;100068.24;;;17.76;32.21
51053;BME280;37093;37.716;-122.060;2023-04-07T00:47:50;100067.66;;;18.13;33.24
51053;BME280;37093;37.716;-122.060;2023-04-07T00:50:19;100064.33;;;17.75;32.86
51053;BME280;37093;37.716;-122.060;2023-04-07T00:52:47;100064.54;;;17.76;33.15
51053;BME280;37093;37.716;-122.060;2023-04-07T00:55:16;100066.03;;;17.44;33.84
51053;BME280;37093;37.716;-122.060;2023-04-07T00:57:44;100064.05;;;17.63;33.51
51053;BME280;37093;37.716;-122.060;2023-04-07T01:00:13;100065.83;;;17.43;33.41
51053;BME280;37093;37.716;-122.060;2023-04-07T01:02:43;100065.40;;;17.39;35.20
51053;BME280;37093;37.716;-122.060;2023-04-07T01:05:19;100062.97;;;16.88;34.54
51053;BME280;37093;37.716;-122.060;2023-04-07T01:07:59;100067.64;;;16.87;34.71
51053;BME280;37093;37.716;-122.060;2023-04-07T01:10:36;100065.14;;;16.86;34.36
51053;BME280;37093;37.716;-122.060;2023-04-07T01:13:12;100057.82;;;17.93;32.99
51053;BME280;37093;37.716;-122.060;2023-04-07T01:15:48;100058.21;;;18.29;32.62
51053;BME280;37093;37.716;-122.060;2023-04-07T01:18:21;100055.08;;;17.78;33.49
51053;BME280;37093;37.716;-122.060;2023-04-07T01:20:52;100063.48;;;18.10;32.78
51053;BME280;37093;37.716;-122.060;2023-04-07T01:23:32;100057.90;;;18.18;32.58
51053;BME280;37093;37.716;-122.060;2023-04-07T01:26:17;100064.93;;;18.67;31.91
51053;BME280;37093;37.716;-122.060;2023-04-07T01:29:52;100068.45;;;18.89;31.34
51053;BME280;37093;37.716;-122.060;2023-04-07T01:32:21;100064.93;;;18.41;32.27
51053;BME280;37093;37.716;-122.060;2023-04-07T01:34:51;100064.69;;;18.20;32.04
51053;BME280;37093;37.716;-122.060;2023-04-07T01:37:21;100059.75;;;18.57;33.27
51053;BME280;37093;37.716;-122.060;2023-04-07T01:39:50;100063.46;;;18.63;32.38
51053;BME280;37093;37.716;-122.060;2023-04-07T01:42:20;100066.67;;;18.74;31.38
51053;BME280;37093;37.716;-122.060;2023-04-07T01:44:49;100070.43;;;18.76;31.36
51053;BME280;37093;37.716;-122.060;2023-04-07T01:47:19;100064.70;;;18.48;32.35
51053;BME280;37093;37.716;-122.060;2023-04-07T01:49:48;100068.88;;;17.77;32.76
51053;BME280;37093;37.716;-122.060;2023-04-07T01:52:17;100065.36;;;17.83;32.77
51053;BME280;37093;37.716;-122.060;2023-04-07T01:54:45;100064.64;;;18.32;32.82
51053;BME280;37093;37.716;-122.060;2023-04-07T01:57:13;100070.21;;;18.15;33.10
51053;BME280;37093;37.716;-122.060;2023-04-07T01:59:42;100068.01;;;18.13;33.65
51053;BME280;37093;37.716;-122.060;2023-04-07T02:02:11;100067.17;;;18.03;33.21
51053;BME280;37093;37.716;-122.060;2023-04-07T02:04:47;100065.29;;;18.14;33.43
51053;BME280;37093;37.716;-122.060;2023-04-07T02:07:21;100068.93;;;17.46;34.10
51053;BME280;37093;37.716;-122.060;2023-04-07T02:09:52;100064.03;;;17.74;34.35
51053;BME280;37093;37.716;-122.060;2023-04-07T02:12:24;100063.37;;;17.61;34.93
51053;BME280;37093;37.716;-122.060;2023-04-07T02:14:54;100064.48;;;17.59;35.10
51053;BME280;37093;37.716;-122.060;2023-04-07T02:17:23;100060.74;;;17.70;34.29
51053;BME280;37093;37.716;-122.060;2023-04-07T02:19:55;100064.29;;;17.48;35.12
51053;BME280;37093;37.716;-122.060;2023-04-07T02:22:25;100066.39;;;17.04;35.84
51053;BME280;37093;37.716;-122.060;2023-04-07T02:24:54;100069.52;;;16.72;36.51
51053;BME280;37093;37.716;-122.060;2023-04-07T02:27:22;100068.79;;;16.88;37.26
51053;BME280;37093;37.716;-122.060;2023-04-07T02:29:51;100066.95;;;17.09;36.11
51053;BME280;37093;37.716;-122.060;2023-04-07T02:32:19;100069.13;;;17.20;36.18
51053;BME280;37093;37.716;-122.060;2023-04-07T02:34:48;100067.15;;;17.02;36.62
51053;BME280;37093;37.716;-122.060;2023-04-07T02:37:16;100058.00;;;16.57;36.55
51053;BME280;37093;37.716;-122.060;2023-04-07T02:39:45;100055.31;;;17.11;36.13
51053;BME280;37093;37.716;-122.060;2023-04-07T02:42:13;100059.15;;;17.02;35.90
51053;BME280;37093;37.716;-122.060;2023-04-07T02:44:42;100057.52;;;16.78;36.86
51053;BME280;37093;37.716;-122.060;2023-04-07T02:47:10;100052.29;;;16.80;36.37
51053;BME280;37093;37.716;-122.060;2023-04-07T02:49:39;100053.26;;;16.71;36.67
51053;BME280;37093;37.716;-122.060;2023-04-07T02:52:07;100044.94;;;17.04;36.66
51053;BME280;37093;37.716;-122.060;2023-04-07T02:54:36;100040.87;;;17.27;35.33
51053;BME280;37093;37.716;-122.060;2023-04-07T02:57:04;100037.80;;;17.51;35.30
51053;BME280;37093;37.716;-122.060;2023-04-07T02:59:33;100037.99;;;17.55;35.02
51053;BME280;37093;37.716;-122.060;2023-04-07T03:02:02;100032.47;;;17.50;35.12
51053;BME280;37093;37.716;-122.060;2023-04-07T03:04:31;100032.66;;;17.00;35.85
51053;BME280;37093;37.716;-122.060;2023-04-07T03:07:00;100031.40;;;17.20;35.76
51053;BME280;37093;37.716;-122.060;2023-04-07T03:09:28;100030.06;;;17.58;35.62
51053;BME280;37093;37.716;-122.060;2023-04-07T03:11:57;100029.11;;;17.77;35.31
51053;BME280;37093;37.716;-122.060;2023-04-07T03:14:25;100030.59;;;17.50;35.54
51053;BME280;37093;37.716;-122.060;2023-04-07T03:16:54;100035.53;;;17.54;36.08
51053;BME280;37093;37.716;-122.060;2023-04-07T03:19:22;100035.67;;;17.23;36.42
51053;BME280;37093;37.716;-122.060;2023-04-07T03:21:51;100032.18;;;17.03;36.62
51053;BME280;37093;37.716;-122.060;2023-04-07T03:24:20;100033.57;;;16.94;36.96
51053;BME280;37093;37.716;-122.060;2023-04-07T03:26:48;100035.35;;;17.45;36.49
51053;BME280;37093;37.716;-122.060;2023-04-07T03:29:17;100042.79;;;17.25;36.41
51053;BME280;37093;37.716;-122.060;2023-04-07T03:31:45;100049.06;;;16.59;36.40
51053;BME280;37093;37.716;-122.060;2023-04-07T03:34:14;100050.07;;;16.34;36.57
51053;BME280;37093;37.716;-122.060;2023-04-07T03:36:42;100050.90;;;16.16;37.58
51053;BME280;37093;37.716;-122.060;2023-04-07T03:39:11;100051.27;;;15.70;38.10
51053;BME280;37093;37.716;-122.060;2023-04-07T03:41:39;100056.57;;;15.82;38.28
51053;BME280;37093;37.716;-122.060;2023-04-07T03:44:08;100054.98;;;16.17;38.10
51053;BME280;37093;37.716;-122.060;2023-04-07T03:46:37;100064.16;;;15.98;38.41
51053;BME280;37093;37.716;-122.060;2023-04-07T03:49:05;100063.09;;;15.84;38.43
51053;BME280;37093;37.716;-122.060;2023-04-07T03:51:33;100075.44;;;14.99;39.95
51053;BME280;37093;37.716;-122.060;2023-04-07T03:54:02;100082.02;;;15.18;40.70
51053;BME280;37093;37.716;-122.060;2023-04-07T03:56:31;100090.50;;;14.58;41.89
51053;BME280;37093;37.716;-122.060;2023-04-07T03:58:59;100100.63;;;14.63;41.54
51053;BME280;37093;37.716;-122.060;2023-04-07T04:01:28;100103.52;;;14.59;42.71
51053;BME280;37093;37.716;-122.060;2023-04-07T04:03:56;100105.67;;;14.43;42.67
51053;BME280;37093;37.716;-122.060;2023-04-07T04:06:25;100106.10;;;14.91;41.89
51053;BME280;37093;37.716;-122.060;2023-04-07T04:08:53;100105.43;;;14.86;42.07
51053;BME280;37093;37.716;-122.060;2023-04-07T04:11:22;100104.91;;;15.14;40.98
51053;BME280;37093;37.716;-122.060;2023-04-07T04:13:50;100108.23;;;15.47;40.40
51053;BME280;37093;37.716;-122.060;2023-04-07T04:16:19;100107.09;;;14.70;41.99
51053;BME280;37093;37.716;-122.060;2023-04-07T04:18:47;100110.67;;;15.56;41.11
51053;BME280;37093;37.716;-122.060;2023-04-07T04:21:16;100113.43;;;15.64;40.21
51053;BME280;37093;37.716;-122.060;2023-04-07T04:23:44;100113.41;;;15.52;39.84
51053;BME280;37093;37.716;-122.060;2023-04-07T04:26:13;100119.05;;;15.24;40.44
51053;BME280;37093;37.716;-122.060;2023-04-07T04:28:42;100119.50;;;15.36;40.99
51053;BME280;37093;37.716;-122.060;2023-04-07T04:31:10;100121.75;;;15.32;41.41
51053;BME280;37093;37.716;-122.060;2023-04-07T04:33:39;100122.89;;;15.67;40.72
51053;BME280;37093;37.716;-122.060;2023-04-07T04:36:07;100118.43;;;14.97;41.43
51053;BME280;37093;37.716;-122.060;2023-04-07T04:38:36;100118.01;;;14.89;41.94
51053;BME280;37093;37.716;-122.060;2023-04-07T04:41:04;100116.33;;;14.63;41.69
51053;BME280;37093;37.716;-122.060;2023-04-07T04:43:33;100111.94;;;14.90;41.53
51053;BME280;37093;37.716;-122.060;2023-04-07T04:46:01;100106.44;;;15.71;39.80
51053;BME280;37093;37.716;-122.060;2023-04-07T04:48:30;100107.95;;;15.93;39.22
51053;BME280;37093;37.716;-122.060;2023-04-07T04:50:58;100106.34;;;16.12;39.52
51053;BME280;37093;37.716;-122.060;2023-04-07T04:53:27;100105.15;;;15.94;39.41
51053;BME280;37093;37.716;-122.060;2023-04-07T04:55:56;100111.09;;;15.41;40.62
51053;BME280;37093;37.716;-122.060;2023-04-07T04:58:24;100108.01;;;15.89;39.65
51053;BME280;37093;37.716;-122.060;2023-04-07T05:00:53;100105.18;;;16.23;39.38
51053;BME280;37093;37.716;-122.060;2023-04-07T05:03:21;100108.55;;;16.32;39.06
51053;BME280;37093;37.716;-122.060;2023-04-07T05:05:50;100115.06;;;16.18;38.63
51053;BME280;37093;37.716;-122.060;2023-04-07T05:08:19;100117.81;;;15.80;39.84
51053;BME280;37093;37.716;-122.060;2023-04-07T05:10:48;100110.67;;;15.95;39.67
51053;BME280;37093;37.716;-122.060;2023-04-07T05:13:16;100106.57;;;16.15;39.00
51053;BME280;37093;37.716;-122.060;2023-04-07T05:15:45;100101.22;;;16.32;37.68
51053;BME280;37093;37.716;-122.060;2023-04-07T05:18:13;100104.49;;;15.99;38.96
51053;BME280;37093;37.716;-122.060;2023-04-07T05:20:43;100103.16;;;15.99;38.89
51053;BME280;37093;37.716;-122.060;2023-04-07T05:23:11;100104.15;;;16.03;39.04
51053;BME280;37093;37.716;-122.060;2023-04-07T05:25:40;100101.05;;;16.32;38.61
51053;BME280;37093;37.716;-122.060;2023-04-07T05:28:08;100102.82;;;16.39;38.88
51053;BME280;37093;37.716;-122.060;2023-04-07T05:30:37;100104.39;;;16.54;38.50
51053;BME280;37093;37.716;-122.060;2023-04-07T05:33:05;100107.31;;;16.78;37.82
51053;BME280;37093;37.716;-122.060;2023-04-07T05:35:34;100113.43;;;16.71;38.01
51053;BME280;37093;37.716;-122.060;2023-04-07T05:38:03;100113.43;;;16.78;37.69
51053;BME280;37093;37.716;-122.060;2023-04-07T05:40:31;100108.42;;;16.72;37.65
51053;BME280;37093;37.716;-122.060;2023-04-07T05:43:00;100110.17;;;16.63;38.03
51053;BME280;37093;37.716;-122.060;2023-04-07T05:45:28;100107.07;;;16.75;38.42
51053;BME280;37093;37.716;-122.060;2023-04-07T05:47:57;100108.46;;;16.51;38.18
51053;BME280;37093;37.716;-122.060;2023-04-07T05:50:26;100106.92;;;16.79;37.61
51053;BME280;37093;37.716;-122.060;2023-04-07T05:52:55;100113.52;;;16.71;37.59
51053;BME280;37093;37.716;-122.060;2023-04-07T05:55:23;100114.08;;;16.93;38.01
51053;BME280;37093;37.716;-122.060;2023-04-07T05:57:52;100112.40;;;16.73;37.91
51053;BME280;37093;37.716;-122.060;2023-04-07T06:00:20;100106.95;;;16.68;38.51
51053;BME280;37093;37.716;-122.060;2023-04-07T06:02:49;100110.09;;;16.44;38.75
51053;BME280;37093;37.716;-122.060;2023-04-07T06:05:17;100110.25;;;16.35;38.73
51053;BME280;37093;37.716;-122.060;2023-04-07T06:07:46;100110.50;;;16.39;38.98
51053;BME280;37093;37.716;-122.060;2023-04-07T06:10:15;100109.87;;;15.83;40.02
51053;BME280;37093;37.716;-122.060;2023-04-07T06:12:43;100110.43;;;15.98;39.81
51053;BME280;37093;37.716;-122.060;2023-04-07T06:15:12;100108.76;;;15.24;40.52
51053;BME280;37093;37.716;-122.060;2023-04-07T06:17:41;100103.28;;;15.55;39.68
51053;BME280;37093;37.716;-122.060;2023-04-07T06:20:10;100108.46;;;15.23;40.84
51053;BME280;37093;37.716;-122.060;2023-04-07T06:22:38;100107.09;;;15.59;40.26
51053;BME280;37093;37.716;-122.060;2023-04-07T06:25:07;100108.33;;;14.91;41.50
51053;BME280;37093;37.716;-122.060;2023-04-07T06:27:36;100107.10;;;15.59;40.67
51053;BME280;37093;37.716;-122.060;2023-04-07T06:30:05;100110.22;;;15.09;41.31
51053;BME280;37093;37.716;-122.060;2023-04-07T06:32:34;100109.69;;;15.69;40.16
51053;BME280;37093;37.716;-122.060;2023-04-07T06:35:03;100111.52;;;15.47;40.68
51053;BME280;37093;37.716;-122.060;2023-04-07T06:37:31;100110.98;;;15.33;40.40
51053;BME280;37093;37.716;-122.060;2023-04-07T06:40:00;100107.16;;;14.54;41.76
51053;BME280;37093;37.716;-122.060;2023-04-07T06:42:28;100103.76;;;15.21;41.19
51053;BME280;37093;37.716;-122.060;2023-04-07T06:44:57;100097.88;;;13.89;43.81
51053;BME280;37093;37.716;-122.060;2023-04-07T06:47:25;100098.24;;;14.03;44.07
51053;BME280;37093;37.716;-122.060;2023-04-07T06:49:54;100097.55;;;14.25;44.60
51053;BME280;37093;37.716;-122.060;2023-04-07T06:52:23;100094.43;;;14.63;43.01
51053;BME280;37093;37.716;-122.060;2023-04-07T06:54:51;100090.77;;;14.62;43.04
51053;BME280;37093;37.716;-122.060;2023-04-07T06:57:20;100089.89;;;15.03;42.49
51053;BME280;37093;37.716;-122.060;2023-04-07T06:59:48;100088.96;;;15.03;42.24
51053;BME280;37093;37.716;-122.060;2023-04-07T07:01:11;100085.73;;;13.74;44.53
51053;BME280;37093;37.716;-122.060;2023-04-07T07:03:39;100077.35;;;13.74;41.65
51053;BME280;37093;37.716;-122.060;2023-04-07T07:06:08;100079.77;;;15.38;39.77
51053;BME280;37093;37.716;-122.060;2023-04-07T07:08:36;100080.49;;;16.40;39.01
51053;BME280;37093;37.716;-122.060;2023-04-07T07:11:05;100081.96;;;16.10;40.44
51053;BME280;37093;37.716;-122.060;2023-04-07T07:13:33;100087.95;;;15.00;42.67
51053;BME280;37093;37.716;-122.060;2023-04-07T07:16:02;100084.26;;;15.16;42.67
51053;BME280;37093;37.716;-122.060;2023-04-07T07:18:31;100086.91;;;15.07;42.69
51053;BME280;37093;37.716;-122.060;2023-04-07T07:20:59;100085.69;;;15.06;42.94
51053;BME280;37093;37.716;-122.060;2023-04-07T07:23:28;100088.71;;;14.68;44.24
51053;BME280;37093;37.716;-122.060;2023-04-07T07:25:56;100092.45;;;15.09;43.75
51053;BME280;37093;37.716;-122.060;2023-04-07T07:28:25;100091.34;;;14.95;44.37
51053;BME280;37093;37.716;-122.060;2023-04-07T07:30:53;100097.69;;;15.47;43.57
51053;BME280;37093;37.716;-122.060;2023-04-07T07:33:22;100101.01;;;14.62;45.26
51053;BME280;37093;37.716;-122.060;2023-04-07T07:35:51;100105.32;;;14.53;45.79
51053;BME280;37093;37.716;-122.060;2023-04-07T07:38:19;100097.55;;;14.50;45.52
51053;BME280;37093;37.716;-122.060;2023-04-07T07:40:48;100098.08;;;14.92;44.07
51053;BME280;37093;37.716;-122.060;2023-04-07T07:43:16;100105.01;;;15.12;44.07
51053;BME280;37093;37.716;-122.060;2023-04-07T07:45:45;100104.83;;;15.13;43.84
51053;BME280;37093;37.716;-122.060;2023-04-07T07:48:13;100097.29;;;15.41;43.25
51053;BME280;37093;37.716;-122.060;2023-04-07T07:50:43;100092.55;;;15.47;43.21
51053;BME280;37093;37.716;-122.060;2023-04-07T07:53:12;100088.93;;;15.55;43.02
51053;BME280;37093;37.716;-122.060;2023-04-07T07:55:40;100093.89;;;15.03;44.00
51053;BME280;37093;37.716;-122.060;2023-04-07T07:58:09;100091.43;;;15.91;43.57
51053;BME280;37093;37.716;-122.060;2023-04-07T08:00:37;100084.01;;;15.38;43.67
51053;BME280;37093;37.716;-122.060;2023-04-07T08:03:06;100078.29;;;15.70;43.44
51053;BME280;37093;37.716;-122.060;2023-04-07T08:05:34;100073.44;;;15.61;42.69
51053;BME280;37093;37.716;-122.060;2023-04-07T08:08:03;100071.97;;;16.07;41.95
51053;BME280;37093;37.716;-122.060;2023-04-07T08:10:31;100074.11;;;16.22;41.89
51053;BME280;37093;37.716;-122.060;2023-04-07T08:13:00;100079.76;;;16.18;41.62
51053;BME280;37093;37.716;-122.060;2023-04-07T08:15:29;100075.45;;;16.46;41.35
51053;BME280;37093;37.716;-122.060;2023-04-07T08:17:57;100078.55;;;16.44;41.16
51053;BME280;37093;37.716;-122.060;2023-04-07T08:20:26;100078.23;;;16.19;41.76
51053;BME280;37093;37.716;-122.060;2023-04-07T08:22:54;100070.47;;;16.39;41.59
51053;BME280;37093;37.716;-122.060;2023-04-07T08:25:23;100066.68;;;16.24;41.81
51053;BME280;37093;37.716;-122.060;2023-04-07T08:27:51;100063.27;;;16.54;41.43
51053;BME280;37093;37.716;-122.060;2023-04-07T08:30:20;100065.07;;;16.29;41.70
51053;BME280;37093;37.716;-122.060;2023-04-07T08:32:49;100066.89;;;16.38;41.64
51053;BME280;37093;37.716;-122.060;2023-04-07T08:35:17;100063.53;;;16.37;41.50
51053;BME280;37093;37.716;-122.060;2023-04-07T08:37:46;100058.16;;;16.48;41.28
51053;BME280;37093;37.716;-122.060;2023-04-07T08:40:14;100057.01;;;16.43;41.80
51053;BME280;37093;37.716;-122.060;2023-04-07T08:42:46;100061.29;;;16.17;41.73
51053;BME280;37093;37.716;-122.060;2023-04-07T08:45:16;100062.65;;;16.39;41.52
51053;BME280;37093;37.716;-122.060;2023-04-07T08:47:46;100059.71;;;16.15;41.52
51053;BME280;37093;37.716;-122.060;2023-04-07T08:50:17;100058.89;;;16.18;41.68
51053;BME280;37093;37.716;-122.060;2023-04-07T08:52:49;100059.81;;;15.63;42.23
51053;BME280;37093;37.716;-122.060;2023-04-07T08:55:18;100065.68;;;15.87;42.27
51053;BME280;37093;37.716;-122.060;2023-04-07T08:57:47;100055.03;;;16.06;41.63
51053;BME280;37093;37.716;-122.060;2023-04-07T09:00:15;100056.71;;;15.80;42.06
51053;BME280;37093;37.716;-122.060;2023-04-07T09:02:44;100051.70;;;15.87;41.97
51053;BME280;37093;37.716;-122.060;2023-04-07T09:05:12;100046.06;;;15.57;41.99
51053;BME280;37093;37.716;-122.060;2023-04-07T09:07:41;100043.88;;;14.98;44.27
51053;BME280;37093;37.716;-122.060;2023-04-07T09:10:10;100038.97;;;15.42;42.80
51053;BME280;37093;37.716;-122.060;2023-04-07T09:12:38;100029.58;;;15.77;42.37
51053;BME280;37093;37.716;-122.060;2023-04-07T09:15:08;100028.47;;;15.57;41.82
51053;BME280;37093;37.716;-122.060;2023-04-07T09:17:36;100033.10;;;14.32;43.47
51053;BME280;37093;37.716;-122.060;2023-04-07T09:20:06;100027.45;;;15.23;42.75
51053;BME280;37093;37.716;-122.060;2023-04-07T09:22:36;100018.07;;;15.15;42.50
51053;BME280;37093;37.716;-122.060;2023-04-07T09:25:13;100008.77;;;15.60;42.06
51053;BME280;37093;37.716;-122.060;2023-04-07T09:27:55;100018.03;;;14.34;45.24
51053;BME280;37093;37.716;-122.060;2023-04-07T09:30:24;100022.29;;;14.10;45.81
51053;BME280;37093;37.716;-122.060;2023-04-07T09:32:52;100022.21;;;13.88;46.99
51053;BME280;37093;37.716;-122.060;2023-04-07T09:35:21;100029.21;;;13.77;47.37
51053;BME280;37093;37.716;-122.060;2023-04-07T09:38:07;100034.40;;;13.87;48.19
51053;BME280;37093;37.716;-122.060;2023-04-07T09:40:36;100036.53;;;13.71;48.68
51053;BME280;37093;37.716;-122.060;2023-04-07T09:43:05;100034.93;;;13.71;50.45
51053;BME280;37093;37.716;-122.060;2023-04-07T09:45:41;100033.19;;;14.45;50.29
51053;BME280;37093;37.716;-122.060;2023-04-07T09:48:20;100035.05;;;14.09;49.69
51053;BME280;37093;37.716;-122.060;2023-04-07T09:50:48;100037.12;;;14.17;49.86
51053;BME280;37093;37.716;-122.060;2023-04-07T09:53:17;100037.74;;;14.79;49.32
51053;BME280;37093;37.716;-122.060;2023-04-07T09:55:45;100036.79;;;15.14;48.85
51053;BME280;37093;37.716;-122.060;2023-04-07T09:58:15;100037.71;;;14.86;49.41
51053;BME280;37093;37.716;-122.060;2023-04-07T10:00:43;100035.14;;;15.37;48.31
51053;BME280;37093;37.716;-122.060;2023-04-07T10:03:13;100042.90;;;14.06;51.41
51053;BME280;37093;37.716;-122.060;2023-04-07T10:05:42;100042.94;;;14.07;52.37
51053;BME280;37093;37.716;-122.060;2023-04-07T10:08:11;100041.16;;;14.23;51.37
51053;BME280;37093;37.716;-122.060;2023-04-07T10:10:41;100037.47;;;13.36;54.99
51053;BME280;37093;37.716;-122.060;2023-04-07T10:13:11;100034.80;;;13.84;53.02
51053;BME280;37093;37.716;-122.060;2023-04-07T10:15:40;100036.11;;;12.90;55.50
51053;BME280;37093;37.716;-122.060;2023-04-07T10:18:09;100038.71;;;13.82;53.20
51053;BME280;37093;37.716;-122.060;2023-04-07T10:20:39;100036.78;;;13.66;53.50
51053;BME280;37093;37.716;-122.060;2023-04-07T10:23:15;100039.32;;;14.29;53.93
51053;BME280;37093;37.716;-122.060;2023-04-07T10:25:47;100039.79;;;14.06;54.35
51053;BME280;37093;37.716;-122.060;2023-04-07T10:28:17;100039.20;;;14.30;53.90
51053;BME280;37093;37.716;-122.060;2023-04-07T10:30:48;100037.45;;;14.50;52.33
51053;BME280;37093;37.716;-122.060;2023-04-07T10:33:17;100034.74;;;15.14;51.33
51053;BME280;37093;37.716;-122.060;2023-04-07T10:36:11;100039.10;;;14.90;51.76
51053;BME280;37093;37.716;-122.060;2023-04-07T10:38:39;100030.16;;;14.96;51.03
51053;BME280;37093;37.716;-122.060;2023-04-07T10:41:41;100026.80;;;15.06;50.70
51053;BME280;37093;37.716;-122.060;2023-04-07T10:47:04;100024.23;;;14.00;52.58
51053;BME280;37093;37.716;-122.060;2023-04-07T10:49:34;100015.90;;;14.49;51.90
51053;BME280;37093;37.716;-122.060;2023-04-07T10:52:34;100015.48;;;14.64;50.51
51053;BME280;37093;37.716;-122.060;2023-04-07T10:55:39;100017.35;;;14.46;50.20
51053;BME280;37093;37.716;-122.060;2023-04-07T10:58:24;100020.86;;;13.20;54.05
51053;BME280;37093;37.716;-122.060;2023-04-07T11:01:25;100028.21;;;14.16;52.10
51053;BME280;37093;37.716;-122.060;2023-04-07T11:03:56;100028.62;;;14.19;51.34
51053;BME280;37093;37.716;-122.060;2023-04-07T11:06:25;100031.38;;;14.89;50.04
51053;BME280;37093;37.716;-122.060;2023-04-07T11:08:54;100027.65;;;14.32;51.26
51053;BME280;37093;37.716;-122.060;2023-04-07T11:11:39;100019.00;;;14.96;49.87
51053;BME280;37093;37.716;-122.060;2023-04-07T11:14:08;100021.00;;;14.84;49.78
51053;BME280;37093;37.716;-122.060;2023-04-07T11:16:40;100012.39;;;14.68;49.12
51053;BME280;37093;37.716;-122.060;2023-04-07T11:19:09;100009.32;;;14.80;50.03
51053;BME280;37093;37.716;-122.060;2023-04-07T11:21:38;100008.87;;;14.33;49.87
51053;BME280;37093;37.716;-122.060;2023-04-07T11:24:07;100000.50;;;14.89;48.88
51053;BME280;37093;37.716;-122.060;2023-04-07T11:26:39;99998.05;;;14.98;48.74
51053;BME280;37093;37.716;-122.060;2023-04-07T11:29:08;99992.09;;;14.89;48.47
51053;BME280;37093;37.716;-122.060;2023-04-07T11:31:36;99993.42;;;14.35;50.24
51053;BME280;37093;37.716;-122.060;2023-04-07T11:34:05;99998.37;;;14.30;50.32
51053;BME280;37093;37.716;-122.060;2023-04-07T11:36:36;100000.80;;;14.49;49.70
51053;BME280;37093;37.716;-122.060;2023-04-07T11:39:05;99997.03;;;14.24;51.00
51053;BME280;37093;37.716;-122.060;2023-04-07T11:41:47;99997.56;;;13.98;52.07
51053;BME280;37093;37.716;-122.060;2023-04-07T11:44:15;99998.83;;;13.41;53.01
51053;BME280;37093;37.716;-122.060;2023-04-07T11:46:53;99998.39;;;13.78;51.60
51053;BME280;37093;37.716;-122.060;2023-04-07T11:49:22;99995.86;;;14.10;52.01
51053;BME280;37093;37.716;-122.060;2023-04-07T11:51:58;99995.66;;;14.03;52.15
51053;BME280;37093;37.716;-122.060;2023-04-07T11:54:27;99988.80;;;13.48;53.08
51053;BME280;37093;37.716;-122.060;2023-04-07T11:57:03;99986.54;;;13.37;52.84
51053;BME280;37093;37.716;-122.060;2023-04-07T11:59:31;99984.81;;;13.71;53.09
51053;BME280;37093;37.716;-122.060;2023-04-07T12:02:00;99981.33;;;13.51;54.10
51053;BME280;37093;37.716;-122.060;2023-04-07T12:04:28;99979.58;;;13.82;53.04
51053;BME280;37093;37.716;-122.060;2023-04-07T12:07:07;99972.84;;;14.15;51.77
51053;BME280;37093;37.716;-122.060;2023-04-07T12:09:36;99975.46;;;14.35;52.35
51053;BME280;37093;37.716;-122.060;2023-04-07T12:12:06;99975.58;;;14.41;52.82
51053;BME280;37093;37.716;-122.060;2023-04-07T12:14:34;99970.05;;;13.78;53.33
51053;BME280;37093;37.716;-122.060;2023-04-07T12:17:03;99970.92;;;14.20;52.83
51053;BME280;37093;37.716;-122.060;2023-04-07T12:19:31;99970.82;;;14.36;51.77
51053;BME280;37093;37.716;-122.060;2023-04-07T12:21:59;99970.65;;;13.60;53.57
51053;BME280;37093;37.716;-122.060;2023-04-07T12:24:28;99973.03;;;14.13;52.17
51053;BME280;37093;37.716;-122.060;2023-04-07T12:26:57;99968.73;;;14.03;52.42
51053;BME280;37093;37.716;-122.060;2023-04-07T12:29:25;99973.07;;;12.96;56.21
51053;BME280;37093;37.716;-122.060;2023-04-07T12:31:54;99970.00;;;13.07;55.02
51053;BME280;37093;37.716;-122.060;2023-04-07T12:34:23;99971.17;;;13.63;54.71
51053;BME280;37093;37.716;-122.060;2023-04-07T12:36:51;99970.54;;;13.77;54.67